sensor_id;sensor_type;location;lat;lon;timestamp;temperature;humidity
52381;DHT22;38310;52.796;6.942;2022-11-13T00:01:19;5.70;99.90
52381;DHT22;38310;52.796;6.942;2022-11-13T00:03:46;5.80;99.90
52381;DHT22;38310;52.796;6.942;2022-11-13T00:06:13;5.80;99.90
52381;DHT22;38310;52.796;6.942;2022-11-13T00:08:40;5.80;99.90
52381;DHT22;38310;52.796;6.942;2022-11-13T00:11:08;5.80;99.90
52381;DHT22;38310;52.796;6.942;2022-11-13T00:13:35;5.80;99.90
52381;DHT22;38310;52.796;6.942;2022-11-13T00:16:03;5.80;99.90
52381;DHT22;38310;52.796;6.942;2022-11-13T00:18:30;5.80;99.90
52381;DHT22;38310;52.796;6.942;2022-11-13T00:21:08;5.90;99.90
52381;DHT22;38310;52.796;6.942;2022-11-13T00:23:34;5.90;99.90
52381;DHT22;38310;52.796;6.942;2022-11-13T00:26:09;5.90;99.90
52381;DHT22;38310;52.796;6.942;2022-11-13T00:28:35;5.90;99.90
52381;DHT22;38310;52.796;6.942;2022-11-13T00:31:02;5.90;99.90
52381;DHT22;38310;52.796;6.942;2022-11-13T00:33:28;5.90;99.90
52381;DHT22;38310;52.796;6.942;2022-11-13T00:39:00;5.90;99.90
52381;DHT22;38310;52.796;6.942;2022-11-13T00:41:44;7.50;99.90
52381;DHT22;38310;52.796;6.942;2022-11-13T00:44:10;5.90;99.90
52381;DHT22;38310;52.796;6.942;2022-11-13T00:46:35;7.10;99.90
52381;DHT22;38310;52.796;6.942;2022-11-13T00:49:01;6.50;99.90
52381;DHT22;38310;52.796;6.942;2022-11-13T00:51:27;5.90;99.90
52381;DHT22;38310;52.796;6.942;2022-11-13T00:53:52;6.00;99.90
52381;DHT22;38310;52.796;6.942;2022-11-13T00:56:18;5.90;99.90
52381;DHT22;38310;52.796;6.942;2022-11-13T00:58:44;6.00;99.90
52381;DHT22;38310;52.796;6.942;2022-11-13T01:01:13;6.00;99.90
52381;DHT22;38310;52.796;6.942;2022-11-13T01:03:39;6.00;99.90
52381;DHT22;38310;52.796;6.942;2022-11-13T01:06:31;6.00;99.90
52381;DHT22;38310;52.796;6.942;2022-11-13T01:08:58;6.00;99.90
52381;DHT22;38310;52.796;6.942;2022-11-13T01:11:26;6.00;99.90
52381;DHT22;38310;52.796;6.942;2022-11-13T01:13:53;6.00;99.90
52381;DHT22;38310;52.796;6.942;2022-11-13T01:16:22;6.00;99.90
52381;DHT22;38310;52.796;6.942;2022-11-13T01:18:49;6.10;99.90
52381;DHT22;38310;52.796;6.942;2022-11-13T01:21:17;6.00;99.90
52381;DHT22;38310;52.796;6.942;2022-11-13T01:23:43;6.00;99.90
52381;DHT22;38310;52.796;6.942;2022-11-13T01:26:13;6.60;99.90
52381;DHT22;38310;52.796;6.942;2022-11-13T01:28:40;6.00;99.90
52381;DHT22;38310;52.796;6.942;2022-11-13T01:31:07;6.20;99.90
52381;DHT22;38310;52.796;6.942;2022-11-13T01:33:34;6.00;99.90
52381;DHT22;38310;52.796;6.942;2022-11-13T01:36:11;6.20;99.90
52381;DHT22;38310;52.796;6.942;2022-11-13T01:38:37;6.00;99.90
52381;DHT22;38310;52.796;6.942;2022-11-13T01:41:04;5.90;99.90
52381;DHT22;38310;52.796;6.942;2022-11-13T01:43:32;5.90;99.90
52381;DHT22;38310;52.796;6.942;2022-11-13T01:48:39;5.90;99.90
52381;DHT22;38310;52.796;6.942;2022-11-13T01:51:13;5.90;99.90
52381;DHT22;38310;52.796;6.942;2022-11-13T01:53:42;5.90;99.90
52381;DHT22;38310;52.796;6.942;2022-11-13T01:56:11;5.80;99.90
52381;DHT22;38310;52.796;6.942;2022-11-13T01:58:38;5.80;99.90
52381;DHT22;38310;52.796;6.942;2022-11-13T02:01:05;6.80;99.90
52381;DHT22;38310;52.796;6.942;2022-11-13T02:03:31;5.80;99.90
52381;DHT22;38310;52.796;6.942;2022-11-13T02:05:57;6.00;99.90
52381;DHT22;38310;52.796;6.942;2022-11-13T02:08:23;5.70;99.90
52381;DHT22;38310;52.796;6.942;2022-11-13T02:10:49;5.70;99.90
52381;DHT22;38310;52.796;6.942;2022-11-13T02:13:15;5.70;99.90
52381;DHT22;38310;52.796;6.942;2022-11-13T02:15:41;5.60;99.90
52381;DHT22;38310;52.796;6.942;2022-11-13T02:18:08;5.70;99.90
52381;DHT22;38310;52.796;6.942;2022-11-13T02:20:59;6.20;99.90
52381;DHT22;38310;52.796;6.942;2022-11-13T02:26:01;5.60;99.90
52381;DHT22;38310;52.796;6.942;2022-11-13T02:28:27;5.60;99.90
52381;DHT22;38310;52.796;6.942;2022-11-13T02:30:53;5.60;99.90
52381;DHT22;38310;52.796;6.942;2022-11-13T02:33:31;5.60;99.90
52381;DHT22;38310;52.796;6.942;2022-11-13T02:35:57;5.60;99.90
52381;DHT22;38310;52.796;6.942;2022-11-13T02:38:23;5.60;99.90
52381;DHT22;38310;52.796;6.942;2022-11-13T02:40:49;5.60;99.90
52381;DHT22;38310;52.796;6.942;2022-11-13T02:43:15;5.50;99.90
52381;DHT22;38310;52.796;6.942;2022-11-13T02:45:40;5.50;99.90
52381;DHT22;38310;52.796;6.942;2022-11-13T02:48:07;5.50;99.90
52381;DHT22;38310;52.796;6.942;2022-11-13T02:50:34;6.40;99.90
52381;DHT22;38310;52.796;6.942;2022-11-13T02:53:00;5.40;99.90
52381;DHT22;38310;52.796;6.942;2022-11-13T02:55:26;5.40;99.90
52381;DHT22;38310;52.796;6.942;2022-11-13T02:57:51;5.70;99.90
52381;DHT22;38310;52.796;6.942;2022-11-13T03:00:17;5.40;99.90
52381;DHT22;38310;52.796;6.942;2022-11-13T03:02:43;5.30;99.90
52381;DHT22;38310;52.796;6.942;2022-11-13T03:05:09;5.30;99.90
52381;DHT22;38310;52.796;6.942;2022-11-13T03:07:34;5.30;99.90
52381;DHT22;38310;52.796;6.942;2022-11-13T03:10:00;5.20;99.90
52381;DHT22;38310;52.796;6.942;2022-11-13T03:12:26;5.20;99.90
52381;DHT22;38310;52.796;6.942;2022-11-13T03:14:51;5.20;99.90
52381;DHT22;38310;52.796;6.942;2022-11-13T03:17:17;5.10;99.90
52381;DHT22;38310;52.796;6.942;2022-11-13T03:19:43;5.10;99.90
52381;DHT22;38310;52.796;6.942;2022-11-13T03:22:08;5.70;99.90
52381;DHT22;38310;52.796;6.942;2022-11-13T03:24:34;5.60;99.90
52381;DHT22;38310;52.796;6.942;2022-11-13T03:27:00;4.30;99.90
52381;DHT22;38310;52.796;6.942;2022-11-13T03:29:25;5.10;99.90
52381;DHT22;38310;52.796;6.942;2022-11-13T03:31:51;5.30;99.90
52381;DHT22;38310;52.796;6.942;2022-11-13T03:34:17;5.10;99.90
52381;DHT22;38310;52.796;6.942;2022-11-13T03:36:43;5.20;99.90
52381;DHT22;38310;52.796;6.942;2022-11-13T03:39:09;5.20;99.90
52381;DHT22;38310;52.796;6.942;2022-11-13T03:41:35;5.50;99.90
52381;DHT22;38310;52.796;6.942;2022-11-13T03:44:00;5.10;99.90
52381;DHT22;38310;52.796;6.942;2022-11-13T03:46:27;5.40;99.90
52381;DHT22;38310;52.796;6.942;2022-11-13T03:48:54;5.20;99.90
52381;DHT22;38310;52.796;6.942;2022-11-13T03:51:20;5.20;99.90
52381;DHT22;38310;52.796;6.942;2022-11-13T03:53:45;5.10;99.90
52381;DHT22;38310;52.796;6.942;2022-11-13T03:56:11;5.10;99.90
52381;DHT22;38310;52.796;6.942;2022-11-13T03:58:37;5.10;99.90
52381;DHT22;38310;52.796;6.942;2022-11-13T04:01:03;5.20;99.90
52381;DHT22;38310;52.796;6.942;2022-11-13T04:03:28;5.10;99.90
52381;DHT22;38310;52.796;6.942;2022-11-13T04:05:54;5.10;99.90
52381;DHT22;38310;52.796;6.942;2022-11-13T04:08:20;5.10;99.90
52381;DHT22;38310;52.796;6.942;2022-11-13T04:10:46;5.20;99.90
52381;DHT22;38310;52.796;6.942;2022-11-13T04:13:13;5.20;99.90
52381;DHT22;38310;52.796;6.942;2022-11-13T04:15:39;5.40;99.90
52381;DHT22;38310;52.796;6.942;2022-11-13T04:18:04;5.70;99.90
52381;DHT22;38310;52.796;6.942;2022-11-13T04:20:30;5.20;99.90
52381;DHT22;38310;52.796;6.942;2022-11-13T04:22:56;5.30;99.90
52381;DHT22;38310;52.796;6.942;2022-11-13T04:25:23;5.30;99.90
52381;DHT22;38310;52.796;6.942;2022-11-13T04:27:50;5.30;99.90
52381;DHT22;38310;52.796;6.942;2022-11-13T04:30:16;5.30;99.90
52381;DHT22;38310;52.796;6.942;2022-11-13T04:32:45;5.30;99.90
52381;DHT22;38310;52.796;6.942;2022-11-13T04:35:11;5.30;99.90
52381;DHT22;38310;52.796;6.942;2022-11-13T04:37:37;5.30;99.90
52381;DHT22;38310;52.796;6.942;2022-11-13T04:40:10;5.30;99.90
52381;DHT22;38310;52.796;6.942;2022-11-13T04:42:36;5.30;99.90
52381;DHT22;38310;52.796;6.942;2022-11-13T04:45:32;5.30;99.90
52381;DHT22;38310;52.796;6.942;2022-11-13T04:47:58;5.30;99.90
52381;DHT22;38310;52.796;6.942;2022-11-13T04:50:24;5.30;99.90
52381;DHT22;38310;52.796;6.942;2022-11-13T04:52:50;5.20;99.90
52381;DHT22;38310;52.796;6.942;2022-11-13T04:55:15;6.50;99.90
52381;DHT22;38310;52.796;6.942;2022-11-13T04:57:41;5.20;99.90
52381;DHT22;38310;52.796;6.942;2022-11-13T05:00:08;5.20;99.90
52381;DHT22;38310;52.796;6.942;2022-11-13T05:02:34;5.20;99.90
52381;DHT22;38310;52.796;6.942;2022-11-13T05:05:00;5.20;99.90
52381;DHT22;38310;52.796;6.942;2022-11-13T05:07:25;5.10;99.90
52381;DHT22;38310;52.796;6.942;2022-11-13T05:09:52;5.10;99.90
52381;DHT22;38310;52.796;6.942;2022-11-13T05:12:18;5.10;99.90
52381;DHT22;38310;52.796;6.942;2022-11-13T05:14:44;5.50;99.90
52381;DHT22;38310;52.796;6.942;2022-11-13T05:17:11;5.00;99.90
52381;DHT22;38310;52.796;6.942;2022-11-13T05:19:37;5.20;99.90
52381;DHT22;38310;52.796;6.942;2022-11-13T05:22:03;4.90;99.90
52381;DHT22;38310;52.796;6.942;2022-11-13T05:24:29;5.30;99.90
52381;DHT22;38310;52.796;6.942;2022-11-13T05:26:55;6.00;99.90
52381;DHT22;38310;52.796;6.942;2022-11-13T05:29:21;4.80;99.90
52381;DHT22;38310;52.796;6.942;2022-11-13T05:31:47;4.70;99.90
52381;DHT22;38310;52.796;6.942;2022-11-13T05:34:13;4.60;99.90
52381;DHT22;38310;52.796;6.942;2022-11-13T05:36:39;5.60;99.90
52381;DHT22;38310;52.796;6.942;2022-11-13T05:39:05;4.70;99.90
52381;DHT22;38310;52.796;6.942;2022-11-13T05:41:31;4.50;99.90
52381;DHT22;38310;52.796;6.942;2022-11-13T05:43:57;4.40;99.90
52381;DHT22;38310;52.796;6.942;2022-11-13T05:46:25;4.40;99.90
52381;DHT22;38310;52.796;6.942;2022-11-13T05:49:05;4.60;99.90
52381;DHT22;38310;52.796;6.942;2022-11-13T05:51:32;4.40;99.90
52381;DHT22;38310;52.796;6.942;2022-11-13T05:53:59;4.30;99.90
52381;DHT22;38310;52.796;6.942;2022-11-13T05:56:31;4.30;99.90
52381;DHT22;38310;52.796;6.942;2022-11-13T05:58:58;4.30;99.90
52381;DHT22;38310;52.796;6.942;2022-11-13T06:01:33;4.30;99.90
52381;DHT22;38310;52.796;6.942;2022-11-13T06:04:00;4.30;99.90
52381;DHT22;38310;52.796;6.942;2022-11-13T06:06:27;4.20;99.90
52381;DHT22;38310;52.796;6.942;2022-11-13T06:08:55;4.20;99.90
52381;DHT22;38310;52.796;6.942;2022-11-13T06:11:23;4.10;99.90
52381;DHT22;38310;52.796;6.942;2022-11-13T06:13:49;4.30;99.90
52381;DHT22;38310;52.796;6.942;2022-11-13T06:16:18;4.10;99.90
52381;DHT22;38310;52.796;6.942;2022-11-13T06:18:45;4.10;99.90
52381;DHT22;38310;52.796;6.942;2022-11-13T06:21:17;4.10;99.90
52381;DHT22;38310;52.796;6.942;2022-11-13T06:23:43;5.40;99.90
52381;DHT22;38310;52.796;6.942;2022-11-13T06:26:21;4.00;99.90
52381;DHT22;38310;52.796;6.942;2022-11-13T06:28:47;4.20;99.90
52381;DHT22;38310;52.796;6.942;2022-11-13T06:31:14;4.10;99.90
52381;DHT22;38310;52.796;6.942;2022-11-13T06:33:41;5.00;99.90
52381;DHT22;38310;52.796;6.942;2022-11-13T06:36:10;3.90;99.90
52381;DHT22;38310;52.796;6.942;2022-11-13T06:38:37;4.10;99.90
52381;DHT22;38310;52.796;6.942;2022-11-13T06:41:04;3.90;99.90
52381;DHT22;38310;52.796;6.942;2022-11-13T06:43:31;3.90;99.90
52381;DHT22;38310;52.796;6.942;2022-11-13T06:45:57;3.90;99.90
52381;DHT22;38310;52.796;6.942;2022-11-13T06:48:24;3.90;99.90
52381;DHT22;38310;52.796;6.942;2022-11-13T06:50:50;3.80;99.90
52381;DHT22;38310;52.796;6.942;2022-11-13T06:53:16;4.60;99.90
52381;DHT22;38310;52.796;6.942;2022-11-13T06:55:49;3.80;99.90
52381;DHT22;38310;52.796;6.942;2022-11-13T06:58:15;3.80;99.90
52381;DHT22;38310;52.796;6.942;2022-11-13T07:00:42;2.70;99.90
52381;DHT22;38310;52.796;6.942;2022-11-13T07:03:25;3.10;99.90
52381;DHT22;38310;52.796;6.942;2022-11-13T07:05:55;3.80;99.90
52381;DHT22;38310;52.796;6.942;2022-11-13T07:08:20;3.90;99.90
52381;DHT22;38310;52.796;6.942;2022-11-13T07:10:54;3.80;99.90
52381;DHT22;38310;52.796;6.942;2022-11-13T07:13:20;4.40;99.90
52381;DHT22;38310;52.796;6.942;2022-11-13T07:15:46;3.80;99.90
52381;DHT22;38310;52.796;6.942;2022-11-13T07:18:12;3.90;99.90
52381;DHT22;38310;52.796;6.942;2022-11-13T07:20:38;3.80;99.90
52381;DHT22;38310;52.796;6.942;2022-11-13T07:23:11;3.80;99.90
52381;DHT22;38310;52.796;6.942;2022-11-13T07:25:36;3.90;99.90
52381;DHT22;38310;52.796;6.942;2022-11-13T07:28:02;3.90;99.90
52381;DHT22;38310;52.796;6.942;2022-11-13T07:30:28;3.70;99.90
52381;DHT22;38310;52.796;6.942;2022-11-13T07:32:53;3.90;99.90
52381;DHT22;38310;52.796;6.942;2022-11-13T07:35:19;3.90;99.90
52381;DHT22;38310;52.796;6.942;2022-11-13T07:37:45;4.20;99.90
52381;DHT22;38310;52.796;6.942;2022-11-13T07:40:11;4.40;99.90
52381;DHT22;38310;52.796;6.942;2022-11-13T07:42:38;4.20;99.90
52381;DHT22;38310;52.796;6.942;2022-11-13T07:45:05;3.90;99.90
52381;DHT22;38310;52.796;6.942;2022-11-13T07:47:31;3.80;99.90
52381;DHT22;38310;52.796;6.942;2022-11-13T07:49:57;5.40;99.90
52381;DHT22;38310;52.796;6.942;2022-11-13T07:52:23;4.30;99.90
52381;DHT22;38310;52.796;6.942;2022-11-13T07:54:48;3.90;99.90
52381;DHT22;38310;52.796;6.942;2022-11-13T07:57:14;3.90;99.90
52381;DHT22;38310;52.796;6.942;2022-11-13T07:59:40;3.90;99.90
52381;DHT22;38310;52.796;6.942;2022-11-13T08:02:07;4.00;99.90
52381;DHT22;38310;52.796;6.942;2022-11-13T08:04:33;4.00;99.90
52381;DHT22;38310;52.796;6.942;2022-11-13T08:06:59;4.00;99.90
52381;DHT22;38310;52.796;6.942;2022-11-13T08:09:25;4.10;99.90
52381;DHT22;38310;52.796;6.942;2022-11-13T08:11:50;4.10;99.90
52381;DHT22;38310;52.796;6.942;2022-11-13T08:14:16;5.40;99.90
52381;DHT22;38310;52.796;6.942;2022-11-13T08:16:49;4.00;99.90
52381;DHT22;38310;52.796;6.942;2022-11-13T08:19:14;4.20;99.90
52381;DHT22;38310;52.796;6.942;2022-11-13T08:21:40;4.20;99.90
52381;DHT22;38310;52.796;6.942;2022-11-13T08:24:07;5.90;99.90
52381;DHT22;38310;52.796;6.942;2022-11-13T08:26:36;4.30;99.90
52381;DHT22;38310;52.796;6.942;2022-11-13T08:29:08;4.30;99.90
52381;DHT22;38310;52.796;6.942;2022-11-13T08:31:34;4.40;99.90
52381;DHT22;38310;52.796;6.942;2022-11-13T08:34:01;4.40;99.90
52381;DHT22;38310;52.796;6.942;2022-11-13T08:36:26;4.50;99.90
52381;DHT22;38310;52.796;6.942;2022-11-13T08:38:52;4.60;99.90
52381;DHT22;38310;52.796;6.942;2022-11-13T08:41:17;4.70;99.90
52381;DHT22;38310;52.796;6.942;2022-11-13T08:43:43;4.70;99.90
52381;DHT22;38310;52.796;6.942;2022-11-13T08:46:09;4.80;99.90
52381;DHT22;38310;52.796;6.942;2022-11-13T08:48:35;4.80;99.90
52381;DHT22;38310;52.796;6.942;2022-11-13T08:51:02;4.90;99.90
52381;DHT22;38310;52.796;6.942;2022-11-13T08:53:27;5.00;99.90
52381;DHT22;38310;52.796;6.942;2022-11-13T08:55:53;5.00;99.90
52381;DHT22;38310;52.796;6.942;2022-11-13T08:58:19;5.10;99.90
52381;DHT22;38310;52.796;6.942;2022-11-13T09:00:44;5.50;99.90
52381;DHT22;38310;52.796;6.942;2022-11-13T09:03:10;5.20;99.90
52381;DHT22;38310;52.796;6.942;2022-11-13T09:05:37;5.30;99.90
52381;DHT22;38310;52.796;6.942;2022-11-13T09:08:03;5.40;99.90
52381;DHT22;38310;52.796;6.942;2022-11-13T09:10:29;5.40;99.90
52381;DHT22;38310;52.796;6.942;2022-11-13T09:13:02;6.70;99.90
52381;DHT22;38310;52.796;6.942;2022-11-13T09:15:43;5.90;99.90
52381;DHT22;38310;52.796;6.942;2022-11-13T09:18:09;5.70;99.90
52381;DHT22;38310;52.796;6.942;2022-11-13T09:20:35;5.80;99.90
52381;DHT22;38310;52.796;6.942;2022-11-13T09:23:03;5.90;99.90
52381;DHT22;38310;52.796;6.942;2022-11-13T09:25:48;5.90;99.90
52381;DHT22;38310;52.796;6.942;2022-11-13T09:28:14;6.70;99.90
52381;DHT22;38310;52.796;6.942;2022-11-13T09:30:40;6.40;99.90
52381;DHT22;38310;52.796;6.942;2022-11-13T09:33:06;6.30;99.90
52381;DHT22;38310;52.796;6.942;2022-11-13T09:35:32;6.90;99.90
52381;DHT22;38310;52.796;6.942;2022-11-13T09:38:19;7.50;99.90
52381;DHT22;38310;52.796;6.942;2022-11-13T09:43:59;7.40;99.90
52381;DHT22;38310;52.796;6.942;2022-11-13T09:48:58;6.90;99.90
52381;DHT22;38310;52.796;6.942;2022-11-13T09:51:32;7.00;99.90
52381;DHT22;38310;52.796;6.942;2022-11-13T09:54:08;7.30;99.90
52381;DHT22;38310;52.796;6.942;2022-11-13T10:07:48;7.90;99.90
52381;DHT22;38310;52.796;6.942;2022-11-13T10:13:11;8.40;99.90
52381;DHT22;38310;52.796;6.942;2022-11-13T10:15:41;8.70;99.90
52381;DHT22;38310;52.796;6.942;2022-11-13T10:18:16;8.90;99.90
52381;DHT22;38310;52.796;6.942;2022-11-13T10:20:55;9.10;99.90
52381;DHT22;38310;52.796;6.942;2022-11-13T10:23:30;9.40;99.90
52381;DHT22;38310;52.796;6.942;2022-11-13T10:26:17;9.70;99.90
52381;DHT22;38310;52.796;6.942;2022-11-13T10:28:43;10.00;99.90
52381;DHT22;38310;52.796;6.942;2022-11-13T10:31:10;10.20;99.90
52381;DHT22;38310;52.796;6.942;2022-11-13T10:33:37;10.80;99.90
52381;DHT22;38310;52.796;6.942;2022-11-13T10:41:13;11.00;99.90
52381;DHT22;38310;52.796;6.942;2022-11-13T10:49:35;11.70;99.90
52381;DHT22;38310;52.796;6.942;2022-11-13T10:52:00;11.80;99.90
52381;DHT22;38310;52.796;6.942;2022-11-13T10:54:28;12.10;99.90
52381;DHT22;38310;52.796;6.942;2022-11-13T10:56:59;12.30;99.90
52381;DHT22;38310;52.796;6.942;2022-11-13T10:59:36;12.50;99.90
52381;DHT22;38310;52.796;6.942;2022-11-13T11:02:22;12.80;99.90
52381;DHT22;38310;52.796;6.942;2022-11-13T11:04:48;13.10;99.90
52381;DHT22;38310;52.796;6.942;2022-11-13T11:07:16;13.30;99.90
52381;DHT22;38310;52.796;6.942;2022-11-13T11:09:44;13.50;99.90
52381;DHT22;38310;52.796;6.942;2022-11-13T11:12:18;13.80;99.90
52381;DHT22;38310;52.796;6.942;2022-11-13T11:23:18;15.00;99.90
52381;DHT22;38310;52.796;6.942;2022-11-13T11:25:57;15.40;99.90
52381;DHT22;38310;52.796;6.942;2022-11-13T11:28:35;15.60;99.90
52381;DHT22;38310;52.796;6.942;2022-11-13T11:31:31;15.90;99.90
52381;DHT22;38310;52.796;6.942;2022-11-13T11:34:01;16.20;99.90
52381;DHT22;38310;52.796;6.942;2022-11-13T11:41:47;17.50;99.90
52381;DHT22;38310;52.796;6.942;2022-11-13T11:47:27;18.40;99.90
52381;DHT22;38310;52.796;6.942;2022-11-13T11:49:53;18.70;99.90
52381;DHT22;38310;52.796;6.942;2022-11-13T11:52:29;19.10;99.90
52381;DHT22;38310;52.796;6.942;2022-11-13T11:57:58;19.60;99.90
52381;DHT22;38310;52.796;6.942;2022-11-13T12:00:31;20.10;99.90
52381;DHT22;38310;52.796;6.942;2022-11-13T12:03:01;20.00;99.90
52381;DHT22;38310;52.796;6.942;2022-11-13T12:13:55;21.30;99.90
52381;DHT22;38310;52.796;6.942;2022-11-13T12:19:27;22.00;99.90
52381;DHT22;38310;52.796;6.942;2022-11-13T12:25:07;22.80;99.90
52381;DHT22;38310;52.796;6.942;2022-11-13T12:28:01;22.80;99.90
52381;DHT22;38310;52.796;6.942;2022-11-13T12:35:53;23.20;99.90
52381;DHT22;38310;52.796;6.942;2022-11-13T12:46:46;23.70;99.60
52381;DHT22;38310;52.796;6.942;2022-11-13T12:52:00;23.80;99.50
52381;DHT22;38310;52.796;6.942;2022-11-13T12:54:34;23.90;99.50
52381;DHT22;38310;52.796;6.942;2022-11-13T12:59:46;24.00;96.80
52381;DHT22;38310;52.796;6.942;2022-11-13T13:46:46;22.70;96.40
52381;DHT22;38310;52.796;6.942;2022-11-13T13:49:18;22.70;98.60
52381;DHT22;38310;52.796;6.942;2022-11-13T13:51:48;22.70;97.40
52381;DHT22;38310;52.796;6.942;2022-11-13T13:54:18;22.50;94.10
52381;DHT22;38310;52.796;6.942;2022-11-13T13:56:45;22.50;96.50
52381;DHT22;38310;52.796;6.942;2022-11-13T13:59:17;22.80;97.20
52381;DHT22;38310;52.796;6.942;2022-11-13T14:01:55;22.80;94.20
52381;DHT22;38310;52.796;6.942;2022-11-13T14:04:23;22.60;92.80
52381;DHT22;38310;52.796;6.942;2022-11-13T14:06:55;22.40;94.60
52381;DHT22;38310;52.796;6.942;2022-11-13T14:09:23;22.40;93.90
52381;DHT22;38310;52.796;6.942;2022-11-13T14:12:15;22.50;93.90
52381;DHT22;38310;52.796;6.942;2022-11-13T14:14:41;22.00;94.20
52381;DHT22;38310;52.796;6.942;2022-11-13T14:17:10;22.10;94.00
52381;DHT22;38310;52.796;6.942;2022-11-13T14:19:55;21.90;94.10
52381;DHT22;38310;52.796;6.942;2022-11-13T14:22:25;21.30;93.80
52381;DHT22;38310;52.796;6.942;2022-11-13T14:24:57;20.70;95.80
52381;DHT22;38310;52.796;6.942;2022-11-13T14:27:26;20.20;95.20
52381;DHT22;38310;52.796;6.942;2022-11-13T14:29:59;19.70;96.30
52381;DHT22;38310;52.796;6.942;2022-11-13T14:32:38;19.20;95.20
52381;DHT22;38310;52.796;6.942;2022-11-13T14:35:05;18.70;96.40
52381;DHT22;38310;52.796;6.942;2022-11-13T14:37:33;18.30;97.10
52381;DHT22;38310;52.796;6.942;2022-11-13T14:40:09;17.80;97.60
52381;DHT22;38310;52.796;6.942;2022-11-13T14:42:43;17.60;97.40
52381;DHT22;38310;52.796;6.942;2022-11-13T14:45:14;17.30;98.30
52381;DHT22;38310;52.796;6.942;2022-11-13T14:47:41;17.00;99.10
52381;DHT22;38310;52.796;6.942;2022-11-13T14:50:34;16.80;99.90
52381;DHT22;38310;52.796;6.942;2022-11-13T14:53:04;16.50;99.90
52381;DHT22;38310;52.796;6.942;2022-11-13T14:55:36;16.20;99.90
52381;DHT22;38310;52.796;6.942;2022-11-13T14:58:03;16.00;99.90
52381;DHT22;38310;52.796;6.942;2022-11-13T15:00:40;15.60;99.90
52381;DHT22;38310;52.796;6.942;2022-11-13T15:03:05;15.40;99.90
52381;DHT22;38310;52.796;6.942;2022-11-13T15:05:32;15.10;99.90
52381;DHT22;38310;52.796;6.942;2022-11-13T15:07:58;15.00;99.90
52381;DHT22;38310;52.796;6.942;2022-11-13T15:10:26;14.80;99.90
52381;DHT22;38310;52.796;6.942;2022-11-13T15:12:52;14.50;99.90
52381;DHT22;38310;52.796;6.942;2022-11-13T15:15:21;14.30;99.90
52381;DHT22;38310;52.796;6.942;2022-11-13T15:17:49;14.10;99.90
52381;DHT22;38310;52.796;6.942;2022-11-13T15:20:20;13.90;99.90
52381;DHT22;38310;52.796;6.942;2022-11-13T15:22:47;13.90;99.90
52381;DHT22;38310;52.796;6.942;2022-11-13T15:25:16;13.70;99.90
52381;DHT22;38310;52.796;6.942;2022-11-13T15:27:42;13.50;99.90
52381;DHT22;38310;52.796;6.942;2022-11-13T15:30:14;13.30;99.90
52381;DHT22;38310;52.796;6.942;2022-11-13T15:32:40;13.10;99.90
52381;DHT22;38310;52.796;6.942;2022-11-13T15:35:13;12.80;99.90
52381;DHT22;38310;52.796;6.942;2022-11-13T15:37:39;12.60;99.90
52381;DHT22;38310;52.796;6.942;2022-11-13T15:40:05;12.40;99.90
52381;DHT22;38310;52.796;6.942;2022-11-13T15:42:32;12.30;99.90
52381;DHT22;38310;52.796;6.942;2022-11-13T15:44:59;12.20;99.90
52381;DHT22;38310;52.796;6.942;2022-11-13T15:47:27;12.10;99.90
52381;DHT22;38310;52.796;6.942;2022-11-13T15:49:53;11.90;99.90
52381;DHT22;38310;52.796;6.942;2022-11-13T15:52:20;11.80;99.90
52381;DHT22;38310;52.796;6.942;2022-11-13T15:54:46;11.70;99.90
52381;DHT22;38310;52.796;6.942;2022-11-13T15:57:23;11.50;99.90
52381;DHT22;38310;52.796;6.942;2022-11-13T15:59:49;11.30;99.90
52381;DHT22;38310;52.796;6.942;2022-11-13T16:02:15;11.10;99.90
52381;DHT22;38310;52.796;6.942;2022-11-13T16:04:41;10.90;99.90
52381;DHT22;38310;52.796;6.942;2022-11-13T16:07:17;10.80;99.90
52381;DHT22;38310;52.796;6.942;2022-11-13T16:09:44;10.60;99.90
52381;DHT22;38310;52.796;6.942;2022-11-13T16:12:11;10.40;99.90
52381;DHT22;38310;52.796;6.942;2022-11-13T16:14:37;10.30;99.90
52381;DHT22;38310;52.796;6.942;2022-11-13T16:17:09;10.10;99.90
52381;DHT22;38310;52.796;6.942;2022-11-13T16:19:36;10.00;99.90
52381;DHT22;38310;52.796;6.942;2022-11-13T16:22:02;9.80;99.90
52381;DHT22;38310;52.796;6.942;2022-11-13T16:24:28;9.70;99.90
52381;DHT22;38310;52.796;6.942;2022-11-13T16:26:56;9.60;99.90
52381;DHT22;38310;52.796;6.942;2022-11-13T16:29:23;9.50;99.90
52381;DHT22;38310;52.796;6.942;2022-11-13T16:31:49;9.50;99.90
52381;DHT22;38310;52.796;6.942;2022-11-13T16:34:15;9.30;99.90
52381;DHT22;38310;52.796;6.942;2022-11-13T16:36:40;9.20;99.90
52381;DHT22;38310;52.796;6.942;2022-11-13T16:39:13;9.20;99.90
52381;DHT22;38310;52.796;6.942;2022-11-13T16:41:39;9.10;99.90
52381;DHT22;38310;52.796;6.942;2022-11-13T16:44:05;8.90;99.90
52381;DHT22;38310;52.796;6.942;2022-11-13T16:46:32;8.90;99.90
52381;DHT22;38310;52.796;6.942;2022-11-13T16:48:59;8.80;99.90
52381;DHT22;38310;52.796;6.942;2022-11-13T16:51:25;8.70;99.90
52381;DHT22;38310;52.796;6.942;2022-11-13T16:53:51;8.50;99.90
52381;DHT22;38310;52.796;6.942;2022-11-13T16:56:22;8.50;99.90
52381;DHT22;38310;52.796;6.942;2022-11-13T16:58:55;8.40;99.90
52381;DHT22;38310;52.796;6.942;2022-11-13T17:01:21;8.40;99.90
52381;DHT22;38310;52.796;6.942;2022-11-13T17:03:47;8.20;99.90
52381;DHT22;38310;52.796;6.942;2022-11-13T17:06:34;8.20;99.90
52381;DHT22;38310;52.796;6.942;2022-11-13T17:09:02;8.10;99.90
52381;DHT22;38310;52.796;6.942;2022-11-13T17:11:29;8.00;99.90
52381;DHT22;38310;52.796;6.942;2022-11-13T17:14:00;8.00;99.90
52381;DHT22;38310;52.796;6.942;2022-11-13T17:16:27;8.00;99.90
52381;DHT22;38310;52.796;6.942;2022-11-13T17:18:53;7.90;99.90
52381;DHT22;38310;52.796;6.942;2022-11-13T17:21:20;7.80;99.90
52381;DHT22;38310;52.796;6.942;2022-11-13T17:23:47;7.80;99.90
52381;DHT22;38310;52.796;6.942;2022-11-13T17:26:12;7.80;99.90
52381;DHT22;38310;52.796;6.942;2022-11-13T17:28:38;7.70;99.90
52381;DHT22;38310;52.796;6.942;2022-11-13T17:31:06;7.70;99.90
52381;DHT22;38310;52.796;6.942;2022-11-13T17:33:33;8.50;99.90
52381;DHT22;38310;52.796;6.942;2022-11-13T17:35:59;7.70;99.90
52381;DHT22;38310;52.796;6.942;2022-11-13T17:38:26;7.60;99.90
52381;DHT22;38310;52.796;6.942;2022-11-13T17:40:52;7.70;99.90
52381;DHT22;38310;52.796;6.942;2022-11-13T17:43:19;7.70;99.90
52381;DHT22;38310;52.796;6.942;2022-11-13T17:45:49;8.50;99.90
52381;DHT22;38310;52.796;6.942;2022-11-13T17:48:15;7.60;99.90
52381;DHT22;38310;52.796;6.942;2022-11-13T17:50:41;7.60;99.90
52381;DHT22;38310;52.796;6.942;2022-11-13T17:53:07;7.70;99.90
52381;DHT22;38310;52.796;6.942;2022-11-13T17:55:32;7.00;99.90
52381;DHT22;38310;52.796;6.942;2022-11-13T17:57:59;7.60;99.90
52381;DHT22;38310;52.796;6.942;2022-11-13T18:00:32;7.70;99.90
52381;DHT22;38310;52.796;6.942;2022-11-13T18:02:58;7.60;99.90
52381;DHT22;38310;52.796;6.942;2022-11-13T18:05:24;7.50;99.90
52381;DHT22;38310;52.796;6.942;2022-11-13T18:07:49;7.70;99.90